Jackson Belden, Ohio
Current Conditions -  °F | °C
As of 7:51 PM on Sunday 21 Dec 2014 (Local Time) from KCAK Reporting Station
Few Clouds Few Clouds  
Wind Chill: 20°   Ceiling: Unl
Heat Index: 27°   Visibility: 7mi
Dew Point: 19°   Wind: 6mph
Humidity: 72%   Direction: 70°ENE
Pressure: 30.21"   Gusts: NA
Location:  40.8509°N, 81.4472°W
Report Text: KCAK 220051Z 07005KT 7SM FEW022 M03/M07 A3021 RMK AO2 SLP245 T10281072
Loading
Personal Weather Stations






























Interactive Weather Map New forecast layout! Learn more

10-Day Weather Forecast

Advertisements
Track Severe Weather on mobile